NFTFPKMJ

Guest
Details From NFTF - Fua Amotu Intl
To PKMJ - MARSHALL ISLANDS INTL
Flight Number -
Tags decoded
Created
Modified
Stats Distance 1,974 nm / 3,657 km
Max Altitude 0 ft / 0 m
Waypoints 5
Social Downloads 0
Likes 0
Share VATSIM

Download

Looking for another format? Having issues loading an existing format? Contact us
Advertisement - Login to hide

Notes

Requested: NFTF TAXIS B598 NA Q154 LENUM Q154 IDUBO AKUMO R332 TW VAVEE PKMJ Unmatched points: TAXIS B598 Q154 LENUM Q154 IDUBO R332

Route

NFTF NA AKUMO VAVEE PKMJ

ID Type Via Altitude Latitude Longitude Leg Dist Tot Dist Heading (true) Name
O NFTF APT - 0 ft / 0 m -21.24249˚ -175.14457˚ - 0 nm - Fua Amotu Intl
NA NDB - 0 ft / 0 m -18.04583˚ 178.56250˚ 404 nm 404 nm 297° / 299° NAUSORI NDB
AKUMO FIX - 0 ft / 0 m -6.24833˚ 175.59167˚ 729 nm 1133 nm 346° / 346° -
VAVEE FIX - 0 ft / 0 m 3.50000˚ 172.50000˚ 614 nm 1748 nm 342° / 342° -
O PKMJ APT - 0 ft / 0 m 7.06476˚ 171.27202˚ 226 nm 1974 nm 341° / 341° MARSHALL ISLANDS INTL

Altitude Profile

Advertisement - Login to hide

Weather


0- 5 10 15 20 25 30 35+ Temperature / ° C

Clouds and Precipitation
Forecast for 2017-12-15 06:00 UTC. Updated an hour ago

Ground ~20,000 ft ~40,000 ft Winds

NFTF

Details ICAO NFTF (TBU)
Name Fua Amotu Intl
Region Fiji and Tonga
Timezone Pacific/Tongatapu (UTC+14.0)
Stats Elevation 126 ft / 38 m (AMSL)
Location -21.242493° -175.144569°
Runways 2
Magnetic Variation 13.666° E

METAR

NFTF 150400Z 00000KT 9999 FEW017 BKN120 25/17 Q1009

Decode

TAF

TAF NFTF 142214Z 1500/1524 13007KT 9999 FEW007 SCT016 BKN100

Decode

Departure Runways

ID Width Length Bearing (true) Bearing (mag) Surface Threshold Offset Overrun Length
11 148 ft / 45 m 8,967 ft / 2,733 m 122.10° 108.43° Asphalt 0 ft / 0 m 194 ft / 59 m
17 194 ft / 59 m 4,960 ft / 1,512 m 182.40° 168.73° Unknown 0 ft / 0 m 0 ft / 0 m
29 148 ft / 45 m 8,967 ft / 2,733 m 302.09° 288.42° Asphalt 0 ft / 0 m 194 ft / 59 m
35 194 ft / 59 m 4,960 ft / 1,512 m 2.40° 348.73° Unknown 0 ft / 0 m 0 ft / 0 m

PKMJ

Details ICAO PKMJ (MAJ)
Name MARSHALL ISLANDS INTL
Region Marshall Islands
Timezone Pacific/Majuro (UTC+12.0)
Stats Elevation 6 ft / 2 m (AMSL)
Location 7.064760° 171.272023°
Runways 1
Magnetic Variation 8.428° E

METAR

PKMJ 150352Z 12008KT 15SM SCT014 SCT050 BKN120 OVC300 28/25 A2975

Decode

TAF

TAF AMD PKMJ 150339Z 1504/1524 14011KT P6SM VCSH SCT014 BKN045 BKN120 FM150500 07014KT P6SM VCSH SCT015 SCT050 BKN120

Decode

Destination Runways

ID Width Length Bearing (true) Bearing (mag) Surface Threshold Offset Overrun Length
07 150 ft / 46 m 7,898 ft / 2,407 m 76.08° 67.65° Asphalt 0 ft / 0 m 200 ft / 61 m
25 150 ft / 46 m 7,898 ft / 2,407 m 256.08° 247.65° Asphalt 0 ft / 0 m 200 ft / 61 m

Popular Alternatives